sensor_id;sensor_type;location;lat;lon;timestamp;pressure;altitude;pressure_sealevel;temperature;humidity
9717;BME280;4897;43.570;27.832;2022-09-12T00:01:14;98375.41;;;18.89;100.00
9717;BME280;4897;43.570;27.832;2022-09-12T00:03:41;98396.09;;;19.03;100.00
9717;BME280;4897;43.570;27.832;2022-09-12T00:06:10;98395.47;;;19.01;100.00
9717;BME280;4897;43.570;27.832;2022-09-12T00:08:38;98374.03;;;19.06;100.00
9717;BME280;4897;43.570;27.832;2022-09-12T00:11:07;98365.78;;;18.80;100.00
9717;BME280;4897;43.570;27.832;2022-09-12T00:13:35;98383.53;;;18.55;100.00
9717;BME280;4897;43.570;27.832;2022-09-12T00:16:03;98374.59;;;18.26;100.00
9717;BME280;4897;43.570;27.832;2022-09-12T00:18:32;98375.28;;;18.07;100.00
9717;BME280;4897;43.570;27.832;2022-09-12T00:21:01;98375.16;;;17.94;100.00
9717;BME280;4897;43.570;27.832;2022-09-12T00:23:29;98342.78;;;17.52;100.00
9717;BME280;4897;43.570;27.832;2022-09-12T00:25:56;98387.44;;;17.69;100.00
9717;BME280;4897;43.570;27.832;2022-09-12T00:28:23;98405.34;;;17.70;100.00
9717;BME280;4897;43.570;27.832;2022-09-12T00:30:50;98396.88;;;17.80;100.00
9717;BME280;4897;43.570;27.832;2022-09-12T00:33:17;98396.25;;;17.78;100.00
9717;BME280;4897;43.570;27.832;2022-09-12T00:35:46;98414.28;;;17.92;100.00
9717;BME280;4897;43.570;27.832;2022-09-12T00:38:15;98409.06;;;17.90;100.00
9717;BME280;4897;43.570;27.832;2022-09-12T00:40:42;98372.25;;;17.68;100.00
9717;BME280;4897;43.570;27.832;2022-09-12T00:43:11;98407.69;;;18.01;100.00
9717;BME280;4897;43.570;27.832;2022-09-12T00:45:40;98404.41;;;18.05;100.00
9717;BME280;4897;43.570;27.832;2022-09-12T00:48:16;98404.59;;;18.04;100.00
9717;BME280;4897;43.570;27.832;2022-09-12T00:50:47;98406.97;;;18.13;100.00
9717;BME280;4897;43.570;27.832;2022-09-12T00:53:14;98400.28;;;18.09;100.00
9717;BME280;4897;43.570;27.832;2022-09-12T00:55:45;98421.06;;;18.09;100.00
9717;BME280;4897;43.570;27.832;2022-09-12T00:58:16;98411.34;;;18.14;100.00
9717;BME280;4897;43.570;27.832;2022-09-12T01:00:46;98423.25;;;18.20;100.00
9717;BME280;4897;43.570;27.832;2022-09-12T01:03:16;98375.97;;;17.88;100.00
9717;BME280;4897;43.570;27.832;2022-09-12T01:05:51;98439.56;;;18.26;100.00
9717;BME280;4897;43.570;27.832;2022-09-12T01:08:20;98431.88;;;18.30;100.00
9717;BME280;4897;43.570;27.832;2022-09-12T01:10:48;98430.44;;;18.34;100.00
9717;BME280;4897;43.570;27.832;2022-09-12T01:13:15;98430.16;;;18.44;100.00
9717;BME280;4897;43.570;27.832;2022-09-12T01:15:43;98437.59;;;18.42;100.00
9717;BME280;4897;43.570;27.832;2022-09-12T01:18:16;98425.41;;;18.52;100.00
9717;BME280;4897;43.570;27.832;2022-09-12T01:20:54;98386.63;;;18.45;100.00
9717;BME280;4897;43.570;27.832;2022-09-12T01:27:00;98426.78;;;18.76;100.00
9717;BME280;4897;43.570;27.832;2022-09-12T01:32:53;98424.69;;;18.71;100.00
9717;BME280;4897;43.570;27.832;2022-09-12T01:35:24;98419.50;;;18.76;100.00
9717;BME280;4897;43.570;27.832;2022-09-12T01:38:04;98409.06;;;18.73;100.00
9717;BME280;4897;43.570;27.832;2022-09-12T01:40:40;98418.28;;;18.79;100.00
9717;BME280;4897;43.570;27.832;2022-09-12T01:43:14;98410.50;;;18.69;100.00
9717;BME280;4897;43.570;27.832;2022-09-12T01:45:48;98445.75;;;18.76;100.00
9717;BME280;4897;43.570;27.832;2022-09-12T01:48:22;98395.25;;;18.62;100.00
9717;BME280;4897;43.570;27.832;2022-09-12T01:50:55;98412.03;;;18.78;100.00
9717;BME280;4897;43.570;27.832;2022-09-12T01:53:26;98412.03;;;18.78;100.00
9717;BME280;4897;43.570;27.832;2022-09-12T01:55:57;98391.94;;;18.60;100.00
9717;BME280;4897;43.570;27.832;2022-09-12T01:58:28;98412.06;;;18.85;100.00
9717;BME280;4897;43.570;27.832;2022-09-12T02:01:03;98424.69;;;18.71;100.00
9717;BME280;4897;43.570;27.832;2022-09-12T02:03:39;98418.47;;;18.71;100.00
9717;BME280;4897;43.570;27.832;2022-09-12T02:06:15;98415.75;;;18.71;100.00
9717;BME280;4897;43.570;27.832;2022-09-12T02:08:46;98409.91;;;18.74;100.00
9717;BME280;4897;43.570;27.832;2022-09-12T02:11:15;98407.41;;;18.72;100.00
9717;BME280;4897;43.570;27.832;2022-09-12T02:13:43;98408.22;;;18.66;100.00
9717;BME280;4897;43.570;27.832;2022-09-12T02:16:16;98414.06;;;18.70;100.00
9717;BME280;4897;43.570;27.832;2022-09-12T02:18:51;98411.13;;;18.65;100.00
9717;BME280;4897;43.570;27.832;2022-09-12T02:21:19;98410.28;;;18.64;100.00
9717;BME280;4897;43.570;27.832;2022-09-12T02:23:52;98402.38;;;18.63;100.00
9717;BME280;4897;43.570;27.832;2022-09-12T02:26:22;98397.00;;;18.76;100.00
9717;BME280;4897;43.570;27.832;2022-09-12T02:28:51;98412.78;;;18.66;100.00
9717;BME280;4897;43.570;27.832;2022-09-12T02:31:22;98413.84;;;18.65;100.00
9717;BME280;4897;43.570;27.832;2022-09-12T02:34:03;98410.72;;;18.68;100.00
9717;BME280;4897;43.570;27.832;2022-09-12T02:36:45;98412.31;;;18.56;100.00
9717;BME280;4897;43.570;27.832;2022-09-12T02:39:17;98347.06;;;18.16;100.00
9717;BME280;4897;43.570;27.832;2022-09-12T02:41:45;98402.91;;;18.52;100.00
9717;BME280;4897;43.570;27.832;2022-09-12T02:44:12;98408.72;;;18.49;100.00
9717;BME280;4897;43.570;27.832;2022-09-12T02:46:42;98414.13;;;18.49;100.00
9717;BME280;4897;43.570;27.832;2022-09-12T02:49:11;98410.59;;;18.48;100.00
9717;BME280;4897;43.570;27.832;2022-09-12T02:51:39;98384.13;;;18.44;100.00
9717;BME280;4897;43.570;27.832;2022-09-12T02:54:09;98367.59;;;18.38;100.00
9717;BME280;4897;43.570;27.832;2022-09-12T02:56:41;98336.25;;;18.16;100.00
9717;BME280;4897;43.570;27.832;2022-09-12T02:59:10;98398.72;;;18.49;100.00
9717;BME280;4897;43.570;27.832;2022-09-12T03:01:53;98435.63;;;18.50;100.00
9717;BME280;4897;43.570;27.832;2022-09-12T03:04:48;98413.91;;;18.44;100.00
9717;BME280;4897;43.570;27.832;2022-09-12T03:07:29;98405.19;;;18.48;100.00
9717;BME280;4897;43.570;27.832;2022-09-12T03:10:06;98419.00;;;18.60;100.00
9717;BME280;4897;43.570;27.832;2022-09-12T03:12:44;98426.47;;;18.58;100.00
9717;BME280;4897;43.570;27.832;2022-09-12T03:15:21;98435.47;;;18.58;100.00
9717;BME280;4897;43.570;27.832;2022-09-12T03:18:03;98425.59;;;18.51;100.00
9717;BME280;4897;43.570;27.832;2022-09-12T03:20:42;98446.91;;;18.60;100.00
9717;BME280;4897;43.570;27.832;2022-09-12T03:23:18;98444.38;;;18.59;100.00
9717;BME280;4897;43.570;27.832;2022-09-12T03:25:53;98439.53;;;18.48;100.00
9717;BME280;4897;43.570;27.832;2022-09-12T03:28:22;98443.09;;;18.48;100.00
9717;BME280;4897;43.570;27.832;2022-09-12T03:30:50;98430.50;;;18.41;100.00
9717;BME280;4897;43.570;27.832;2022-09-12T03:33:23;98440.78;;;18.45;100.00
9717;BME280;4897;43.570;27.832;2022-09-12T03:35:52;98427.56;;;18.42;100.00
9717;BME280;4897;43.570;27.832;2022-09-12T03:38:19;98419.44;;;18.35;100.00
9717;BME280;4897;43.570;27.832;2022-09-12T03:40:46;98433.84;;;18.43;100.00
9717;BME280;4897;43.570;27.832;2022-09-12T03:43:12;98416.63;;;18.22;100.00
9717;BME280;4897;43.570;27.832;2022-09-12T03:45:39;98423.81;;;18.36;100.00
9717;BME280;4897;43.570;27.832;2022-09-12T03:48:06;98414.63;;;18.31;100.00
9717;BME280;4897;43.570;27.832;2022-09-12T03:50:33;98411.91;;;18.31;100.00
9717;BME280;4897;43.570;27.832;2022-09-12T03:53:01;98409.63;;;18.07;100.00
9717;BME280;4897;43.570;27.832;2022-09-12T03:55:28;98420.47;;;18.34;100.00
9717;BME280;4897;43.570;27.832;2022-09-12T03:57:55;98397.38;;;18.11;100.00
9717;BME280;4897;43.570;27.832;2022-09-12T04:00:22;98423.69;;;18.23;100.00
9717;BME280;4897;43.570;27.832;2022-09-12T04:02:58;98413.75;;;18.30;100.00
9717;BME280;4897;43.570;27.832;2022-09-12T04:05:30;98417.97;;;18.33;100.00
9717;BME280;4897;43.570;27.832;2022-09-12T04:08:02;98408.78;;;18.34;100.00
9717;BME280;4897;43.570;27.832;2022-09-12T04:10:28;98401.50;;;18.34;100.00
9717;BME280;4897;43.570;27.832;2022-09-12T04:12:56;98419.66;;;18.41;100.00
9717;BME280;4897;43.570;27.832;2022-09-12T04:15:23;98421.44;;;18.48;100.00
9717;BME280;4897;43.570;27.832;2022-09-12T04:17:50;98424.44;;;18.38;100.00
9717;BME280;4897;43.570;27.832;2022-09-12T04:20:17;98432.84;;;18.44;100.00
9717;BME280;4897;43.570;27.832;2022-09-12T04:22:44;98435.91;;;18.41;100.00
9717;BME280;4897;43.570;27.832;2022-09-12T04:25:12;98438.38;;;18.35;100.00
9717;BME280;4897;43.570;27.832;2022-09-12T04:27:40;98433.00;;;18.14;100.00
9717;BME280;4897;43.570;27.832;2022-09-12T04:30:08;98438.28;;;18.01;100.00
9717;BME280;4897;43.570;27.832;2022-09-12T04:32:35;98444.69;;;17.94;100.00
9717;BME280;4897;43.570;27.832;2022-09-12T04:35:02;98450.81;;;17.81;100.00
9717;BME280;4897;43.570;27.832;2022-09-12T04:37:32;98438.00;;;17.69;100.00
9717;BME280;4897;43.570;27.832;2022-09-12T04:40:02;98455.03;;;17.90;100.00
9717;BME280;4897;43.570;27.832;2022-09-12T04:42:33;98414.22;;;17.64;100.00
9717;BME280;4897;43.570;27.832;2022-09-12T04:45:00;98450.03;;;17.87;100.00
9717;BME280;4897;43.570;27.832;2022-09-12T04:47:27;98462.13;;;17.91;100.00
9717;BME280;4897;43.570;27.832;2022-09-12T04:49:54;98440.00;;;17.81;100.00
9717;BME280;4897;43.570;27.832;2022-09-12T04:52:21;98453.75;;;17.86;100.00
9717;BME280;4897;43.570;27.832;2022-09-12T04:54:48;98445.84;;;17.85;100.00
9717;BME280;4897;43.570;27.832;2022-09-12T04:57:15;98459.28;;;17.99;100.00
9717;BME280;4897;43.570;27.832;2022-09-12T04:59:43;98465.72;;;17.98;100.00
9717;BME280;4897;43.570;27.832;2022-09-12T05:02:10;98464.97;;;18.04;100.00
9717;BME280;4897;43.570;27.832;2022-09-12T05:04:37;98473.09;;;18.04;100.00
9717;BME280;4897;43.570;27.832;2022-09-12T05:07:06;98480.03;;;18.13;100.00
9717;BME280;4897;43.570;27.832;2022-09-12T05:09:36;98477.44;;;18.26;100.00
9717;BME280;4897;43.570;27.832;2022-09-12T05:12:03;98472.03;;;18.26;100.00
9717;BME280;4897;43.570;27.832;2022-09-12T05:14:30;98469.63;;;18.38;100.00
9717;BME280;4897;43.570;27.832;2022-09-12T05:16:59;98471.81;;;18.28;100.00
9717;BME280;4897;43.570;27.832;2022-09-12T05:19:26;98477.03;;;18.51;100.00
9717;BME280;4897;43.570;27.832;2022-09-12T05:21:52;98465.19;;;18.52;100.00
9717;BME280;4897;43.570;27.832;2022-09-12T05:24:19;98446.63;;;18.49;100.00
9717;BME280;4897;43.570;27.832;2022-09-12T05:26:46;98462.75;;;18.63;100.00
9717;BME280;4897;43.570;27.832;2022-09-12T05:29:13;98453.19;;;18.61;100.00
9717;BME280;4897;43.570;27.832;2022-09-12T05:31:40;98444.91;;;18.69;100.00
9717;BME280;4897;43.570;27.832;2022-09-12T05:34:09;98451.06;;;18.90;100.00
9717;BME280;4897;43.570;27.832;2022-09-12T05:36:36;98451.22;;;18.82;100.00
9717;BME280;4897;43.570;27.832;2022-09-12T05:39:03;98450.13;;;19.04;100.00
9717;BME280;4897;43.570;27.832;2022-09-12T05:41:31;98440.81;;;18.79;100.00
9717;BME280;4897;43.570;27.832;2022-09-12T05:43:59;98446.88;;;18.88;100.00
9717;BME280;4897;43.570;27.832;2022-09-12T05:46:28;98454.09;;;19.08;100.00
9717;BME280;4897;43.570;27.832;2022-09-12T05:48:56;98452.19;;;19.09;100.00
9717;BME280;4897;43.570;27.832;2022-09-12T05:51:26;98445.97;;;19.15;100.00
9717;BME280;4897;43.570;27.832;2022-09-12T05:53:55;98447.63;;;19.09;100.00
9717;BME280;4897;43.570;27.832;2022-09-12T05:56:24;98443.84;;;19.04;100.00
9717;BME280;4897;43.570;27.832;2022-09-12T05:58:53;98454.13;;;18.81;100.00
9717;BME280;4897;43.570;27.832;2022-09-12T06:01:20;98458.38;;;18.90;100.00
9717;BME280;4897;43.570;27.832;2022-09-12T06:03:48;98460.56;;;19.14;100.00
9717;BME280;4897;43.570;27.832;2022-09-12T06:06:17;98446.78;;;19.09;100.00
9717;BME280;4897;43.570;27.832;2022-09-12T06:08:50;98448.53;;;19.23;100.00
9717;BME280;4897;43.570;27.832;2022-09-12T06:11:19;98468.13;;;19.25;100.00
9717;BME280;4897;43.570;27.832;2022-09-12T06:13:47;98455.22;;;19.27;100.00
9717;BME280;4897;43.570;27.832;2022-09-12T06:16:17;98460.34;;;19.15;100.00
9717;BME280;4897;43.570;27.832;2022-09-12T06:18:46;98464.31;;;19.13;100.00
9717;BME280;4897;43.570;27.832;2022-09-12T06:21:15;98463.00;;;18.96;100.00
9717;BME280;4897;43.570;27.832;2022-09-12T06:23:42;98479.63;;;18.93;100.00
9717;BME280;4897;43.570;27.832;2022-09-12T06:26:12;98465.44;;;18.91;100.00
9717;BME280;4897;43.570;27.832;2022-09-12T06:28:41;98463.41;;;18.99;100.00
9717;BME280;4897;43.570;27.832;2022-09-12T06:31:11;98487.41;;;19.09;100.00
9717;BME280;4897;43.570;27.832;2022-09-12T06:33:40;98461.13;;;19.03;100.00
9717;BME280;4897;43.570;27.832;2022-09-12T06:36:09;98465.75;;;19.09;100.00
9717;BME280;4897;43.570;27.832;2022-09-12T06:38:37;98468.06;;;19.12;100.00
9717;BME280;4897;43.570;27.832;2022-09-12T06:41:08;98473.38;;;18.92;100.00
9717;BME280;4897;43.570;27.832;2022-09-12T06:43:37;98483.59;;;18.97;100.00
9717;BME280;4897;43.570;27.832;2022-09-12T06:46:05;98475.81;;;18.81;100.00
9717;BME280;4897;43.570;27.832;2022-09-12T06:48:32;98438.63;;;18.68;100.00
9717;BME280;4897;43.570;27.832;2022-09-12T06:51:02;98482.75;;;18.96;100.00
9717;BME280;4897;43.570;27.832;2022-09-12T06:53:31;98476.41;;;19.17;100.00
9717;BME280;4897;43.570;27.832;2022-09-12T06:56:01;98477.44;;;19.50;100.00
9717;BME280;4897;43.570;27.832;2022-09-12T06:58:28;98476.88;;;19.74;100.00
9717;BME280;4897;43.570;27.832;2022-09-12T07:01:02;98452.50;;;19.87;100.00
9717;BME280;4897;43.570;27.832;2022-09-12T07:03:29;98456.69;;;20.03;100.00
9717;BME280;4897;43.570;27.832;2022-09-12T07:06:00;98470.06;;;20.18;100.00
9717;BME280;4897;43.570;27.832;2022-09-12T07:08:28;98461.72;;;20.13;100.00
9717;BME280;4897;43.570;27.832;2022-09-12T07:10:55;98440.03;;;20.19;100.00
9717;BME280;4897;43.570;27.832;2022-09-12T07:13:23;98459.28;;;20.44;100.00
9717;BME280;4897;43.570;27.832;2022-09-12T07:15:50;98464.03;;;20.55;100.00
9717;BME280;4897;43.570;27.832;2022-09-12T07:18:19;98452.16;;;20.69;100.00
9717;BME280;4897;43.570;27.832;2022-09-12T07:20:48;98447.94;;;20.80;100.00
9717;BME280;4897;43.570;27.832;2022-09-12T07:23:15;98446.25;;;20.92;100.00
9717;BME280;4897;43.570;27.832;2022-09-12T07:25:42;98461.47;;;20.93;100.00
9717;BME280;4897;43.570;27.832;2022-09-12T07:28:10;98448.34;;;20.90;100.00
9717;BME280;4897;43.570;27.832;2022-09-12T07:30:37;98459.63;;;21.06;100.00
9717;BME280;4897;43.570;27.832;2022-09-12T07:33:04;98454.19;;;21.06;100.00
9717;BME280;4897;43.570;27.832;2022-09-12T07:35:33;98381.03;;;20.85;100.00
9717;BME280;4897;43.570;27.832;2022-09-12T07:38:00;98456.94;;;21.51;100.00
9717;BME280;4897;43.570;27.832;2022-09-12T07:40:28;98451.78;;;21.74;100.00
9717;BME280;4897;43.570;27.832;2022-09-12T07:42:55;98433.78;;;21.73;100.00
9717;BME280;4897;43.570;27.832;2022-09-12T07:45:22;98436.16;;;22.00;100.00
9717;BME280;4897;43.570;27.832;2022-09-12T07:47:52;98460.19;;;22.35;100.00
9717;BME280;4897;43.570;27.832;2022-09-12T07:50:19;98452.75;;;22.48;100.00
9717;BME280;4897;43.570;27.832;2022-09-12T07:52:47;98449.84;;;22.43;100.00
9717;BME280;4897;43.570;27.832;2022-09-12T07:55:15;98445.84;;;22.46;100.00
9717;BME280;4897;43.570;27.832;2022-09-12T07:57:42;98446.16;;;22.62;100.00
9717;BME280;4897;43.570;27.832;2022-09-12T08:00:09;98453.50;;;22.55;100.00
9717;BME280;4897;43.570;27.832;2022-09-12T08:02:36;98454.59;;;22.54;100.00
9717;BME280;4897;43.570;27.832;2022-09-12T08:05:04;98435.00;;;22.39;100.00
9717;BME280;4897;43.570;27.832;2022-09-12T08:07:33;98444.66;;;22.66;100.00
9717;BME280;4897;43.570;27.832;2022-09-12T08:10:01;98445.91;;;23.25;100.00
9717;BME280;4897;43.570;27.832;2022-09-12T08:12:29;98431.88;;;24.17;100.00
9717;BME280;4897;43.570;27.832;2022-09-12T08:14:57;98429.28;;;26.05;90.31
9717;BME280;4897;43.570;27.832;2022-09-12T08:17:24;98407.75;;;27.84;72.13
9717;BME280;4897;43.570;27.832;2022-09-12T08:19:51;98378.28;;;29.68;58.43
9717;BME280;4897;43.570;27.832;2022-09-12T08:22:18;98429.94;;;30.13;54.41
9717;BME280;4897;43.570;27.832;2022-09-12T08:24:46;98423.13;;;29.06;57.89
9717;BME280;4897;43.570;27.832;2022-09-12T08:27:14;98419.97;;;29.86;53.10
9717;BME280;4897;43.570;27.832;2022-09-12T08:29:41;98406.47;;;29.95;52.66
9717;BME280;4897;43.570;27.832;2022-09-12T08:32:08;98434.97;;;30.46;48.87
9717;BME280;4897;43.570;27.832;2022-09-12T08:34:38;98415.41;;;30.37;49.06
9717;BME280;4897;43.570;27.832;2022-09-12T08:37:05;98418.78;;;32.12;44.21
9717;BME280;4897;43.570;27.832;2022-09-12T08:39:32;98414.53;;;30.77;45.74
9717;BME280;4897;43.570;27.832;2022-09-12T08:42:03;98413.97;;;30.80;46.40
9717;BME280;4897;43.570;27.832;2022-09-12T08:44:55;98424.97;;;31.20;45.15
9717;BME280;4897;43.570;27.832;2022-09-12T08:47:29;98410.41;;;30.95;45.73
9717;BME280;4897;43.570;27.832;2022-09-12T08:50:09;98413.16;;;31.00;44.56
9717;BME280;4897;43.570;27.832;2022-09-12T08:52:42;98398.38;;;31.44;44.26
9717;BME280;4897;43.570;27.832;2022-09-12T08:55:24;98403.69;;;32.33;41.84
9717;BME280;4897;43.570;27.832;2022-09-12T08:57:56;98406.50;;;31.80;41.40
9717;BME280;4897;43.570;27.832;2022-09-12T09:00:32;98398.50;;;30.14;44.61
9717;BME280;4897;43.570;27.832;2022-09-12T09:03:33;98380.41;;;31.47;42.90
9717;BME280;4897;43.570;27.832;2022-09-12T09:06:16;98389.78;;;31.56;41.29
9717;BME280;4897;43.570;27.832;2022-09-12T09:08:59;98389.63;;;34.06;37.66
9717;BME280;4897;43.570;27.832;2022-09-12T09:11:38;98393.31;;;34.01;37.25
9717;BME280;4897;43.570;27.832;2022-09-12T09:14:23;98402.78;;;29.59;44.21
9717;BME280;4897;43.570;27.832;2022-09-12T09:17:13;98405.66;;;27.64;53.58
9717;BME280;4897;43.570;27.832;2022-09-12T09:19:46;98393.28;;;30.67;45.62
9717;BME280;4897;43.570;27.832;2022-09-12T09:22:22;98398.34;;;31.54;42.57
9717;BME280;4897;43.570;27.832;2022-09-12T09:24:58;98389.97;;;30.81;43.97
9717;BME280;4897;43.570;27.832;2022-09-12T09:27:31;98387.16;;;29.90;47.14
9717;BME280;4897;43.570;27.832;2022-09-12T09:30:00;98383.66;;;29.33;49.85
9717;BME280;4897;43.570;27.832;2022-09-12T09:32:32;98379.22;;;30.59;47.02
9717;BME280;4897;43.570;27.832;2022-09-12T09:35:01;98356.94;;;33.18;40.92
9717;BME280;4897;43.570;27.832;2022-09-12T09:37:33;98349.84;;;34.93;37.08
9717;BME280;4897;43.570;27.832;2022-09-12T09:40:12;98380.81;;;33.14;38.76
9717;BME280;4897;43.570;27.832;2022-09-12T09:42:45;98382.19;;;31.08;44.02
9717;BME280;4897;43.570;27.832;2022-09-12T09:45:20;98366.97;;;32.57;41.55
9717;BME280;4897;43.570;27.832;2022-09-12T09:47:52;98363.59;;;33.83;37.93
9717;BME280;4897;43.570;27.832;2022-09-12T09:50:23;98378.47;;;34.11;37.43
9717;BME280;4897;43.570;27.832;2022-09-12T09:52:51;98381.50;;;33.91;37.46
9717;BME280;4897;43.570;27.832;2022-09-12T09:55:23;98373.09;;;32.54;38.85
9717;BME280;4897;43.570;27.832;2022-09-12T09:57:52;98332.78;;;30.96;41.70
9717;BME280;4897;43.570;27.832;2022-09-12T10:00:21;98373.34;;;29.75;45.16
9717;BME280;4897;43.570;27.832;2022-09-12T10:05:48;98386.81;;;27.99;48.41
9717;BME280;4897;43.570;27.832;2022-09-12T10:08:20;98373.75;;;29.42;42.10
9717;BME280;4897;43.570;27.832;2022-09-12T10:10:55;98380.00;;;28.38;45.32
9717;BME280;4897;43.570;27.832;2022-09-12T10:13:27;98383.88;;;27.57;48.67
9717;BME280;4897;43.570;27.832;2022-09-12T10:15:59;98375.00;;;28.35;49.38
9717;BME280;4897;43.570;27.832;2022-09-12T10:18:39;98326.41;;;28.88;44.60
9717;BME280;4897;43.570;27.832;2022-09-12T10:21:17;98357.19;;;27.58;49.45
9717;BME280;4897;43.570;27.832;2022-09-12T10:23:50;98324.09;;;26.78;53.16
9717;BME280;4897;43.570;27.832;2022-09-12T10:26:19;98384.34;;;27.11;53.77
9717;BME280;4897;43.570;27.832;2022-09-12T10:28:50;98366.72;;;28.62;47.75
9717;BME280;4897;43.570;27.832;2022-09-12T10:31:24;98366.22;;;30.95;42.89
9717;BME280;4897;43.570;27.832;2022-09-12T10:33:56;98356.16;;;33.36;37.22
9717;BME280;4897;43.570;27.832;2022-09-12T10:36:25;98369.59;;;32.04;38.67
9717;BME280;4897;43.570;27.832;2022-09-12T10:39:04;98361.31;;;30.41;40.89
9717;BME280;4897;43.570;27.832;2022-09-12T10:41:35;98371.31;;;29.50;42.61
9717;BME280;4897;43.570;27.832;2022-09-12T10:44:07;98367.19;;;28.91;45.41
9717;BME280;4897;43.570;27.832;2022-09-12T10:46:40;98372.53;;;28.34;48.08
9717;BME280;4897;43.570;27.832;2022-09-12T10:49:20;98370.63;;;27.54;52.42
9717;BME280;4897;43.570;27.832;2022-09-12T10:51:47;98376.38;;;27.10;54.09
9717;BME280;4897;43.570;27.832;2022-09-12T10:54:16;98375.50;;;27.47;50.52
9717;BME280;4897;43.570;27.832;2022-09-12T10:56:54;98362.94;;;26.91;51.92
9717;BME280;4897;43.570;27.832;2022-09-12T10:59:37;98382.94;;;27.09;51.82
9717;BME280;4897;43.570;27.832;2022-09-12T11:02:14;98354.75;;;29.35;45.37
9717;BME280;4897;43.570;27.832;2022-09-12T11:04:54;98347.19;;;31.62;39.68
9717;BME280;4897;43.570;27.832;2022-09-12T11:07:36;98348.44;;;33.75;35.89
9717;BME280;4897;43.570;27.832;2022-09-12T11:10:16;98386.69;;;30.33;38.84
9717;BME280;4897;43.570;27.832;2022-09-12T11:12:49;98377.03;;;29.34;41.30
9717;BME280;4897;43.570;27.832;2022-09-12T11:15:33;98376.97;;;28.40;43.37
9717;BME280;4897;43.570;27.832;2022-09-12T11:18:12;98357.06;;;27.69;45.30
9717;BME280;4897;43.570;27.832;2022-09-12T11:20:55;98365.13;;;28.39;44.80
9717;BME280;4897;43.570;27.832;2022-09-12T11:23:56;98358.97;;;31.14;38.84
9717;BME280;4897;43.570;27.832;2022-09-12T11:26:46;98345.81;;;33.23;36.21
9717;BME280;4897;43.570;27.832;2022-09-12T11:29:24;98354.50;;;33.77;34.41
9717;BME280;4897;43.570;27.832;2022-09-12T11:32:07;98346.22;;;34.47;34.25
9717;BME280;4897;43.570;27.832;2022-09-12T11:34:46;98342.66;;;35.19;31.65
9717;BME280;4897;43.570;27.832;2022-09-12T11:37:36;98345.84;;;31.98;36.41
9717;BME280;4897;43.570;27.832;2022-09-12T11:40:24;98334.81;;;29.95;39.78
9717;BME280;4897;43.570;27.832;2022-09-12T11:42:56;98349.53;;;28.50;44.07
9717;BME280;4897;43.570;27.832;2022-09-12T11:45:27;98368.88;;;29.02;42.20
9717;BME280;4897;43.570;27.832;2022-09-12T11:47:58;98360.16;;;30.27;39.61
9717;BME280;4897;43.570;27.832;2022-09-12T11:50:29;98355.16;;;30.95;37.60
9717;BME280;4897;43.570;27.832;2022-09-12T11:53:04;98343.53;;;31.08;37.55
9717;BME280;4897;43.570;27.832;2022-09-12T11:55:47;98346.38;;;30.62;38.28
9717;BME280;4897;43.570;27.832;2022-09-12T11:58:17;98343.06;;;29.95;39.48
9717;BME280;4897;43.570;27.832;2022-09-12T12:00:47;98354.88;;;29.03;41.44
9717;BME280;4897;43.570;27.832;2022-09-12T12:03:21;98362.19;;;27.88;44.70
9717;BME280;4897;43.570;27.832;2022-09-12T12:05:54;98368.44;;;26.91;47.48
9717;BME280;4897;43.570;27.832;2022-09-12T12:08:25;98358.50;;;26.69;48.16
9717;BME280;4897;43.570;27.832;2022-09-12T12:10:55;98343.13;;;27.06;47.13
9717;BME280;4897;43.570;27.832;2022-09-12T12:13:26;98341.53;;;27.80;44.52
9717;BME280;4897;43.570;27.832;2022-09-12T12:15:57;98359.72;;;27.86;45.23
9717;BME280;4897;43.570;27.832;2022-09-12T12:18:27;98360.53;;;27.87;45.50
9717;BME280;4897;43.570;27.832;2022-09-12T12:20:55;98355.47;;;27.47;47.06
9717;BME280;4897;43.570;27.832;2022-09-12T12:24:02;98338.69;;;28.65;44.04
9717;BME280;4897;43.570;27.832;2022-09-12T12:26:53;98345.13;;;28.81;42.10
9717;BME280;4897;43.570;27.832;2022-09-12T12:29:41;98339.31;;;28.40;42.05
9717;BME280;4897;43.570;27.832;2022-09-12T12:32:23;98344.81;;;28.09;43.69
9717;BME280;4897;43.570;27.832;2022-09-12T12:35:00;98350.09;;;27.35;44.12
9717;BME280;4897;43.570;27.832;2022-09-12T12:37:58;98362.50;;;26.78;47.22
9717;BME280;4897;43.570;27.832;2022-09-12T12:40:28;98354.09;;;26.68;48.68
9717;BME280;4897;43.570;27.832;2022-09-12T12:42:57;98360.22;;;26.37;50.18
9717;BME280;4897;43.570;27.832;2022-09-12T12:45:47;98366.19;;;25.89;51.71
9717;BME280;4897;43.570;27.832;2022-09-12T12:48:18;98367.88;;;25.62;52.75
9717;BME280;4897;43.570;27.832;2022-09-12T12:50:45;98354.88;;;25.97;52.66
9717;BME280;4897;43.570;27.832;2022-09-12T12:53:18;98297.56;;;25.95;51.30
9717;BME280;4897;43.570;27.832;2022-09-12T12:55:49;98348.41;;;28.41;44.91
9717;BME280;4897;43.570;27.832;2022-09-12T12:58:28;98325.63;;;28.92;41.53
9717;BME280;4897;43.570;27.832;2022-09-12T13:01:05;98351.22;;;28.93;41.68
9717;BME280;4897;43.570;27.832;2022-09-12T13:03:42;98351.00;;;29.04;40.59
9717;BME280;4897;43.570;27.832;2022-09-12T13:06:32;98340.69;;;29.32;39.95
9717;BME280;4897;43.570;27.832;2022-09-12T13:09:02;98361.13;;;28.94;40.52
9717;BME280;4897;43.570;27.832;2022-09-12T13:11:34;98365.25;;;28.18;41.83
9717;BME280;4897;43.570;27.832;2022-09-12T13:14:03;98372.63;;;27.37;43.03
9717;BME280;4897;43.570;27.832;2022-09-12T13:16:33;98370.66;;;26.73;44.78
9717;BME280;4897;43.570;27.832;2022-09-12T13:19:05;98359.50;;;26.63;45.66
9717;BME280;4897;43.570;27.832;2022-09-12T13:21:34;98365.69;;;26.20;46.74
9717;BME280;4897;43.570;27.832;2022-09-12T13:24:02;98358.22;;;26.16;47.89
9717;BME280;4897;43.570;27.832;2022-09-12T13:26:39;98367.34;;;26.38;48.43
9717;BME280;4897;43.570;27.832;2022-09-12T13:29:17;98357.06;;;26.28;48.99
9717;BME280;4897;43.570;27.832;2022-09-12T13:31:45;98356.72;;;26.25;49.49
9717;BME280;4897;43.570;27.832;2022-09-12T13:34:18;98355.91;;;26.07;51.31
9717;BME280;4897;43.570;27.832;2022-09-12T13:36:56;98357.97;;;26.17;52.31
9717;BME280;4897;43.570;27.832;2022-09-12T13:39:43;98325.13;;;26.72;49.79